• Join FlightAware (Why Join?)
  • Login
  • US Flag 
12:48AM EDT


 

Airport Tracker/Info


-or-


 

Live Flight TrackerFlight Track Log ✈ UPS618 ✈ 27-Apr-2012 ✈ KPIA - KRFD

Flight Track Log - Related Links

Times and Time Zones

All times are in EDT time to prevent confusion due to time zone crossing. See the UPS618 flight status page for this flight to view local times or setup timezone preferences in your user account.

Time Position Orientation Groundspeed Altitude Reporting Facility
EDT Latitude Longitude Course Direction KTS MPH feet Rate Location/Type
05:53AM 40.7386 -89.7281 16° North 210 242 5,900  Level Chicago Center
05:54AM 40.8075 -89.7011 14° North 281 323 9,900 2,580 Climbing Chicago Center
05:55AM 40.8950 -89.6714 17° North 297 342 11,100 2,340 Climbing Chicago Center
05:56AM 40.9931 -89.6306 19° North 333 383 14,600 1,860 Climbing Chicago Center
05:57AM 41.0953 -89.5842 18° North 364 419 14,900 120 Climbing Chicago Center
05:58AM 41.1975 -89.5403 19° North 377 434 14,900 -840 Level Chicago Center
05:59AM 41.2997 -89.4936 18° North 382 440 13,300 -1,980 Descending Chicago Center
06:00AM 41.3978 -89.4522 17° North 382 440 11,000 -1,200 Descending Chicago Center
06:01AM 41.4897 -89.4136 17° North 363 418 10,900  Descending Chicago Center
06:02AM 41.5750 -89.3778 18° North 358 412 11,000 60 Climbing Chicago Center
06:03AM 41.6625 -89.3389 19° North 350 403 11,100  Climbing Chicago Center
06:04AM 41.7397 -89.3025 17° North 317 365 11,000 -1,440 Descending Chicago Center
06:05AM 41.8128 -89.2719 27° Northeast 288 331 8,300 -2,700 Descending Chicago Center
06:06AM 41.8753 -89.2300 28° Northeast 263 303 5,600 -2,400 Descending Chicago Center
06:07AM 41.9378 -89.1853 28° Northeast 250 288 3,600 -1,560 Descending Chicago Center
06:08AM 41.9958 -89.1431 25° Northeast 242 278 2,500 -600 Descending Chicago Center
06:09AM 42.0500 -89.1094 19° North 229 264 2,400 -60 Descending Chicago Center
06:10AM 42.1106 -89.0811 348° North 212 244 2,400 -300 Level Chicago Center
06:11AM 42.1481 -89.0922 North 165 190 1,800 4,260 Descending Chicago Center
06:12AM 42.1939 -89.0864 North 165 190 11,000 4,560 Climbing Chicago Center
06:13AM 42.2314 -89.0808 North 165 190 11,000  Level Chicago Center